Time;durP1;ratioP1;P1;durP2;ratioP2;P2;SDS_P1;SDS_P2;PMS_P1;PMS_P2;Temp;Humidity;BMP_temperature;BMP_pressure;BME280_temperature;BME280_humidity;BME280_pressure;Samples;Min_cycle;Max_cycle;Signal;HPM_P1;HPM_P2
2022/06/28 00:01:11;;;;;;;17.38;12.73;;;;;;;22.73;56.86;99681.66;5094953;27;20035;-72
2022/06/28 00:03:36;;;;;;;21.10;12.23;;;;;;;22.76;56.64;99683.19;5079930;27;20031;-71
2022/06/28 00:06:01;;;;;;;18.13;12.27;;;;;;;22.78;56.55;99692.00;5116771;27;20050;-71
2022/06/28 00:08:25;;;;;;;14.30;10.98;;;;;;;22.81;57.44;99691.63;5095735;27;20121;-72
2022/06/28 00:10:50;;;;;;;14.10;11.55;;;;;;;22.84;57.76;99696.69;5096614;27;20054;-74
2022/06/28 00:13:15;;;;;;;23.80;12.73;;;;;;;22.85;57.08;99695.66;5116302;27;20817;-75
2022/06/28 00:18:23;;;;;;;15.65;11.98;;;;;;;22.81;56.66;99697.91;5094223;27;20035;-76
2022/06/28 00:20:48;;;;;;;18.88;12.15;;;;;;;22.80;56.84;99698.06;5097162;27;20050;-74
2022/06/28 00:23:13;;;;;;;18.50;12.18;;;;;;;22.77;57.75;99701.19;5097685;27;20430;-75
2022/06/28 00:25:38;;;;;;;18.98;12.70;;;;;;;22.71;57.48;99702.72;5101306;27;20481;-73
2022/06/28 00:28:03;;;;;;;15.32;12.20;;;;;;;22.67;57.44;99706.03;5064735;27;20074;-73
2022/06/28 00:30:29;;;;;;;15.40;12.60;;;;;;;22.61;57.58;99713.03;5096924;27;20083;-70
2022/06/28 00:32:54;;;;;;;19.42;12.02;;;;;;;22.57;57.99;99710.88;5079888;27;20566;-68
2022/06/28 00:35:18;;;;;;;17.88;13.30;;;;;;;22.53;58.41;99706.84;5097505;27;20537;-69
2022/06/28 00:37:44;;;;;;;17.88;11.93;;;;;;;22.48;58.22;99701.94;5109764;27;20525;-71
2022/06/28 00:40:09;;;;;;;19.08;11.30;;;;;;;22.46;60.09;99717.59;5106629;27;20052;-72
2022/06/28 00:42:35;;;;;;;17.85;12.43;;;;;;;22.40;59.79;99705.59;5091210;27;20501;-70
2022/06/28 00:45:01;;;;;;;22.13;12.10;;;;;;;22.36;59.45;99701.53;5094056;28;20063;-73
2022/06/28 00:47:27;;;;;;;20.60;12.15;;;;;;;22.32;59.04;99708.41;5106351;27;20094;-73
2022/06/28 00:49:55;;;;;;;25.40;13.45;;;;;;;22.29;59.11;99711.47;5110771;27;20223;-72
2022/06/28 00:52:20;;;;;;;16.00;12.93;;;;;;;22.28;59.73;99708.94;5097261;27;20034;-76
2022/06/28 00:54:45;;;;;;;18.08;13.18;;;;;;;22.26;60.21;99709.09;5079558;27;20046;-71
2022/06/28 00:57:10;;;;;;;16.92;12.15;;;;;;;22.24;60.64;99708.44;5080954;27;20098;-70
2022/06/28 00:59:35;;;;;;;16.38;12.10;;;;;;;22.23;60.85;99708.66;5098302;27;20039;-76
2022/06/28 01:02:02;;;;;;;17.35;12.55;;;;;;;22.22;60.75;99712.41;5114129;27;20049;-75
2022/06/28 01:04:28;;;;;;;18.00;12.68;;;;;;;22.19;60.88;99719.03;5113734;27;20042;-76
2022/06/28 01:06:54;;;;;;;16.80;12.02;;;;;;;22.17;60.83;99718.34;5068872;27;20037;-73
2022/06/28 01:09:21;;;;;;;18.13;12.00;;;;;;;22.16;61.09;99719.38;5069768;28;20175;-76
2022/06/28 01:11:46;;;;;;;19.00;12.43;;;;;;;22.17;61.18;99720.22;5110255;27;20091;-73
2022/06/28 01:14:13;;;;;;;15.95;12.55;;;;;;;22.17;60.85;99722.94;5109047;27;20039;-75
2022/06/28 01:16:57;;;;;;;17.00;12.77;;;;;;;22.18;61.16;99725.47;5109284;27;20058;-71
2022/06/28 01:19:36;;;;;;;19.02;12.05;;;;;;;22.18;61.29;99730.91;5091160;27;20048;-70
2022/06/28 01:22:11;;;;;;;20.20;13.75;;;;;;;22.18;61.46;99728.19;5078500;27;20134;-72
2022/06/28 01:24:35;;;;;;;15.43;11.48;;;;;;;22.16;61.63;99730.25;5088742;27;20041;-70
2022/06/28 01:27:06;;;;;;;15.43;12.48;;;;;;;22.17;61.63;99731.09;5081582;27;20126;-76
2022/06/28 01:29:32;;;;;;;18.63;13.27;;;;;;;22.16;61.64;99726.69;5081532;27;20086;-73
2022/06/28 01:32:23;;;;;;;21.40;12.63;;;;;;;22.17;61.47;99729.22;4999071;28;20049;-76
2022/06/28 01:34:50;;;;;;;26.88;13.13;;;;;;;22.19;61.89;99719.03;4982588;28;20045;-76
2022/06/28 01:37:18;;;;;;;18.00;12.50;;;;;;;22.20;61.89;99719.88;4969675;28;20057;-75
2022/06/28 01:39:43;;;;;;;24.13;13.55;;;;;;;22.20;61.72;99725.31;5002802;28;20045;-76
2022/06/28 01:42:08;;;;;;;25.33;13.35;;;;;;;22.21;61.18;99727.84;4996970;28;20122;-76
2022/06/28 01:44:39;;;;;;;22.20;13.20;;;;;;;22.25;61.43;99731.03;4980635;28;20095;-73
2022/06/28 01:47:29;;;;;;;21.77;12.85;;;;;;;22.31;61.55;99727.59;4980105;28;20057;-75
2022/06/28 01:50:20;;;;;;;20.25;12.80;;;;;;;22.37;60.07;99733.13;4996690;28;20056;-71
2022/06/28 01:52:46;;;;;;;24.45;12.77;;;;;;;22.45;60.15;99730.34;4996928;28;20893;-69
2022/06/28 01:55:29;;;;;;;21.60;13.05;;;;;;;22.54;59.92;99733.84;5013000;28;20511;-75
2022/06/28 01:57:55;;;;;;;20.23;13.02;;;;;;;22.61;59.80;99739.38;5016805;28;20070;-73
2022/06/28 02:00:21;;;;;;;16.77;12.45;;;;;;;22.67;59.45;99734.06;5016008;28;20047;-73
2022/06/28 02:02:49;;;;;;;19.60;13.73;;;;;;;22.73;59.49;99733.28;5006750;28;20049;-69
2022/06/28 02:05:37;;;;;;;18.58;11.68;;;;;;;22.79;59.28;99738.03;4941046;28;20051;-70
2022/06/28 02:08:03;;;;;;;19.73;13.35;;;;;;;22.83;59.34;99732.22;4943301;28;20054;-72
2022/06/28 02:10:51;;;;;;;18.92;12.20;;;;;;;22.88;59.22;99737.94;5029227;28;20059;-69
2022/06/28 02:13:16;;;;;;;16.45;12.27;;;;;;;22.90;59.47;99747.59;5019021;28;20044;-72
2022/06/28 02:15:41;;;;;;;20.67;12.48;;;;;;;22.95;59.15;99745.16;5000964;28;20047;-70
2022/06/28 02:18:06;;;;;;;13.05;11.65;;;;;;;23.01;58.48;99752.59;5001599;28;20526;-74
2022/06/28 02:20:31;;;;;;;16.13;12.18;;;;;;;23.05;59.13;99755.75;5031091;28;20054;-73
2022/06/28 02:22:55;;;;;;;17.65;12.98;;;;;;;23.08;58.09;99739.91;5054679;28;20047;-70
2022/06/28 02:25:20;;;;;;;15.50;12.27;;;;;;;23.17;57.85;99751.53;5037814;28;20036;-73
2022/06/28 02:27:47;;;;;;;19.15;13.30;;;;;;;23.20;57.47;99756.59;5037849;28;20046;-69
2022/06/28 02:30:13;;;;;;;18.25;12.30;;;;;;;23.24;56.99;99760.66;5054811;28;20166;-71
2022/06/28 02:32:37;;;;;;;18.60;11.68;;;;;;;23.28;56.86;99761.94;5037563;28;20040;-70
2022/06/28 02:40:30;;;;;;;18.50;12.18;;;;;;;23.49;56.49;99762.00;5055020;28;20123;-73
2022/06/28 02:45:47;;;;;;;16.73;11.75;;;;;;;23.62;55.48;99763.25;5017284;28;20090;-73
2022/06/28 02:48:12;;;;;;;16.33;11.10;;;;;;;23.66;55.19;99756.41;5017599;28;20052;-74
2022/06/28 02:50:37;;;;;;;16.90;11.63;;;;;;;23.67;55.28;99764.38;5034360;28;20052;-75
2022/06/28 02:53:02;;;;;;;16.65;11.13;;;;;;;23.73;55.57;99769.03;5000849;28;20071;-76
2022/06/28 02:55:27;;;;;;;15.85;12.02;;;;;;;23.73;54.87;99769.03;5035860;28;20052;-73
2022/06/28 02:57:52;;;;;;;19.55;12.25;;;;;;;23.78;54.85;99776.66;5020625;28;20133;-75
2022/06/28 03:00:18;;;;;;;17.02;11.98;;;;;;;23.82;54.71;99764.31;5023441;28;20044;-76
2022/06/28 03:02:45;;;;;;;14.82;11.93;;;;;;;23.87;54.66;99764.59;5022917;28;20056;-74
2022/06/28 03:05:15;;;;;;;16.55;11.57;;;;;;;23.93;54.39;99763.81;5020594;28;20194;-70
2022/06/28 03:07:43;;;;;;;19.25;12.05;;;;;;;23.99;54.46;99765.78;5035399;28;20064;-72
2022/06/28 03:10:13;;;;;;;13.38;10.90;;;;;;;24.06;53.93;99768.56;5004770;28;20135;-78
2022/06/28 03:12:38;;;;;;;16.92;11.90;;;;;;;24.13;53.92;99770.34;5017044;28;20052;-70
2022/06/28 03:15:04;;;;;;;13.60;11.02;;;;;;;24.19;53.86;99783.19;5000503;28;20516;-71
2022/06/28 03:17:30;;;;;;;15.38;12.35;;;;;;;24.19;53.29;99779.63;5077010;27;20103;-69
2022/06/28 03:19:54;;;;;;;15.40;10.60;;;;;;;24.24;52.82;99785.38;5099521;27;20051;-69
2022/06/28 03:22:19;;;;;;;13.60;10.75;;;;;;;24.31;53.04;99786.28;5116314;27;20074;-70
2022/06/28 03:24:44;;;;;;;13.77;9.98;;;;;;;24.38;52.51;99791.81;5079082;27;20063;-71
2022/06/28 03:27:10;;;;;;;14.27;10.48;;;;;;;24.44;52.53;99791.84;5100127;27;20050;-73
2022/06/28 03:29:35;;;;;;;13.48;10.63;;;;;;;24.49;52.26;99800.28;5082667;27;20034;-72
2022/06/28 03:32:04;;;;;;;12.27;10.88;;;;;;;24.55;52.06;99794.06;5096881;27;20050;-70
2022/06/28 03:34:29;;;;;;;11.90;10.30;;;;;;;24.59;51.68;99799.97;5097772;27;20081;-70
2022/06/28 03:36:55;;;;;;;12.68;10.80;;;;;;;24.63;51.77;99798.50;5097235;27;20066;-71
2022/06/28 03:39:40;;;;;;;14.70;10.57;;;;;;;24.73;51.89;99799.03;5113582;27;20126;-71
2022/06/28 03:42:05;;;;;;;13.50;11.25;;;;;;;24.79;51.67;99798.25;5064022;27;20129;-71
2022/06/28 03:44:32;;;;;;;15.70;11.40;;;;;;;24.83;51.78;99791.34;5077362;27;20043;-72
2022/06/28 03:47:00;;;;;;;14.10;10.98;;;;;;;24.81;51.88;99796.16;5076658;27;20087;-70
2022/06/28 03:49:50;;;;;;;14.43;10.70;;;;;;;24.89;51.71;99798.75;5095928;27;20405;-70
2022/06/28 03:52:34;;;;;;;12.13;10.85;;;;;;;25.08;51.20;99797.22;5081892;27;20051;-70
2022/06/28 03:55:11;;;;;;;11.05;9.93;;;;;;;25.28;50.64;99797.38;5096439;27;20078;-71
2022/06/28 03:57:48;;;;;;;16.33;11.57;;;;;;;25.46;50.00;99794.94;5063239;27;20039;-71
2022/06/28 04:00:15;;;;;;;13.13;11.07;;;;;;;25.54;49.70;99800.22;5061533;27;20042;-73
2022/06/28 04:02:42;;;;;;;15.38;11.65;;;;;;;25.62;49.29;99796.53;5077882;27;20047;-71
2022/06/28 04:05:15;;;;;;;13.13;10.90;;;;;;;25.57;49.11;99791.66;5060896;27;20041;-70
2022/06/28 04:07:41;;;;;;;15.35;10.75;;;;;;;25.62;49.14;99799.28;5096334;27;20063;-70
2022/06/28 04:10:07;;;;;;;13.48;10.80;;;;;;;25.68;48.66;99799.28;5078251;27;20074;-70
2022/06/28 04:12:32;;;;;;;12.77;9.52;;;;;;;25.71;48.20;99791.75;5093896;27;20057;-71
2022/06/28 04:15:10;;;;;;;10.38;9.13;;;;;;;25.76;47.92;99792.81;5095198;27;20090;-70
2022/06/28 04:17:35;;;;;;;14.80;10.00;;;;;;;25.80;47.92;99804.16;5081243;27;20042;-71
2022/06/28 04:20:41;;;;;;;19.15;10.32;;;;;;;25.83;47.60;99806.50;5033222;28;20048;-72
2022/06/28 04:23:06;;;;;;;14.00;9.90;;;;;;;25.88;47.90;99814.91;5016715;28;20469;-70
2022/06/28 04:25:32;;;;;;;13.18;10.32;;;;;;;25.97;47.95;99808.22;5033550;28;20052;-69
2022/06/28 04:28:08;;;;;;;13.80;10.98;;;;;;;26.08;47.93;99812.25;5016902;28;20048;-71
2022/06/28 04:30:33;;;;;;;13.63;10.70;;;;;;;26.22;47.63;99811.25;5015817;28;20048;-71
2022/06/28 04:33:00;;;;;;;14.75;10.60;;;;;;;26.33;47.77;99811.50;5021248;28;20044;-70
2022/06/28 04:35:29;;;;;;;13.35;9.52;;;;;;;26.49;47.34;99815.75;5003914;28;20053;-70
2022/06/28 04:37:54;;;;;;;15.93;10.75;;;;;;;26.53;46.79;99813.41;5015745;28;20554;-71
2022/06/28 04:40:35;;;;;;;12.02;10.63;;;;;;;26.56;45.61;99816.59;4998809;28;20048;-71
2022/06/28 04:43:15;;;;;;;12.15;9.10;;;;;;;26.63;46.11;99814.72;5015152;28;20079;-72
2022/06/28 04:45:40;;;;;;;12.57;10.68;;;;;;;26.73;46.21;99819.78;5032680;28;20442;-71
2022/06/28 04:48:09;;;;;;;14.95;9.60;;;;;;;26.83;45.67;99811.16;5031937;28;20048;-71
2022/06/28 04:50:34;;;;;;;12.98;9.13;;;;;;;26.76;44.73;99811.13;5015564;28;20044;-71
2022/06/28 04:52:59;;;;;;;21.23;12.10;;;;;;;26.76;44.55;99819.34;5016095;28;20547;-70
2022/06/28 04:55:25;;;;;;;14.98;11.00;;;;;;;26.79;43.96;99816.19;5085300;27;20501;-71
2022/06/28 04:58:05;;;;;;;12.80;9.40;;;;;;;26.54;44.58;99823.31;5096874;27;20513;-70
2022/06/28 05:00:30;;;;;;;12.38;9.40;;;;;;;26.11;45.76;99820.88;5100167;27;20580;-71
2022/06/28 05:03:02;;;;;;;16.88;10.80;;;;;;;25.72;46.78;99826.19;5086170;27;20519;-71
2022/06/28 05:05:47;;;;;;;15.75;10.15;;;;;;;25.45;47.61;99825.19;5056397;28;20414;-71
2022/06/28 05:08:14;;;;;;;17.48;11.30;;;;;;;25.15;48.46;99824.56;5023076;28;20044;-71
2022/06/28 05:10:52;;;;;;;16.13;10.80;;;;;;;25.00;49.47;99827.38;5025535;28;20130;-72
2022/06/28 05:13:37;;;;;;;20.92;11.00;;;;;;;25.04;50.40;99834.16;5039156;28;20047;-72
2022/06/28 05:16:05;;;;;;;21.20;12.75;;;;;;;25.30;50.35;99836.19;5040128;28;20127;-71
2022/06/28 05:18:30;;;;;;;19.70;12.63;;;;;;;25.76;48.87;99832.91;5057914;28;20210;-72
2022/06/28 05:20:56;;;;;;;15.82;11.68;;;;;;;26.22;47.81;99830.38;5040756;28;20060;-74
2022/06/28 05:23:21;;;;;;;12.82;10.18;;;;;;;26.69;46.62;99835.75;5040670;28;20060;-73
2022/06/28 05:26:06;;;;;;;14.00;10.93;;;;;;;27.27;44.42;99819.56;5049591;28;21015;-72
2022/06/28 05:28:32;;;;;;;14.82;10.57;;;;;;;27.68;43.65;99821.16;5039473;28;20414;-71
2022/06/28 05:30:57;;;;;;;11.63;9.85;;;;;;;28.02;42.38;99836.41;5039498;28;20430;-70
2022/06/28 05:33:22;;;;;;;14.40;11.00;;;;;;;28.18;42.03;99836.78;5055738;28;20094;-71
2022/06/28 05:35:47;;;;;;;13.80;10.57;;;;;;;28.20;41.52;99831.09;5038635;28;20044;-72
2022/06/28 05:38:11;;;;;;;15.15;10.73;;;;;;;28.39;41.18;99829.28;5055959;28;20181;-73
2022/06/28 05:40:36;;;;;;;11.77;9.32;;;;;;;28.64;40.59;99829.34;5039003;28;20059;-72
2022/06/28 05:43:01;;;;;;;15.55;9.73;;;;;;;29.00;40.34;99837.75;5082950;27;20058;-70
2022/06/28 05:45:26;;;;;;;15.10;10.80;;;;;;;29.28;39.77;99840.00;5100419;27;20039;-72
2022/06/28 05:47:51;;;;;;;11.45;9.70;;;;;;;29.50;38.40;99838.53;5083691;27;20043;-72
2022/06/28 05:50:16;;;;;;;19.80;13.68;;;;;;;29.54;38.39;99830.69;5100249;27;20035;-72
2022/06/28 05:52:41;;;;;;;18.65;10.48;;;;;;;29.74;38.42;99836.78;5083520;27;20531;-72
2022/06/28 05:55:06;;;;;;;12.80;10.32;;;;;;;30.15;38.99;99832.50;5083300;27;20480;-72
2022/06/28 05:57:31;;;;;;;14.73;10.18;;;;;;;30.58;37.53;99838.69;5084131;27;20042;-71
2022/06/28 05:59:56;;;;;;;13.57;9.55;;;;;;;31.00;36.47;99841.41;5104021;27;20047;-70
2022/06/28 06:02:21;;;;;;;11.45;8.50;;;;;;;31.49;36.11;99839.28;5107488;27;20050;-70
2022/06/28 06:04:45;;;;;;;13.90;8.43;;;;;;;31.60;34.36;99839.28;5123644;27;20054;-71
2022/06/28 06:07:10;;;;;;;12.45;8.68;;;;;;;31.72;34.66;99839.28;5119961;27;20047;-70
2022/06/28 06:09:36;;;;;;;12.15;8.13;;;;;;;32.06;33.90;99852.13;5101987;27;20098;-72
2022/06/28 06:12:01;;;;;;;13.40;9.55;;;;;;;32.50;33.17;99851.66;5099656;27;20066;-72
2022/06/28 06:14:26;;;;;;;12.60;9.40;;;;;;;32.83;32.22;99845.38;5119000;27;20111;-73
2022/06/28 06:16:51;;;;;;;14.20;9.18;;;;;;;32.77;32.19;99853.56;5066565;27;20058;-73
2022/06/28 06:19:17;;;;;;;14.52;9.68;;;;;;;32.68;31.71;99846.75;5087683;27;20157;-75
2022/06/28 06:21:42;;;;;;;12.02;9.25;;;;;;;32.97;31.29;99850.31;5123966;27;20047;-72
2022/06/28 06:24:07;;;;;;;11.73;8.57;;;;;;;33.58;30.69;99847.69;5103217;27;20035;-70
2022/06/28 06:27:07;;;;;;;11.73;9.50;;;;;;;34.51;29.83;99846.69;5087519;28;20067;-71
2022/06/28 06:29:33;;;;;;;12.93;8.68;;;;;;;34.96;28.36;99846.31;5050765;28;20130;-71
2022/06/28 06:31:58;;;;;;;14.15;8.65;;;;;;;35.06;28.06;99845.56;5077747;28;20044;-71
2022/06/28 06:34:41;;;;;;;15.15;8.05;;;;;;;34.88;27.65;99846.78;5078932;28;20126;-71
2022/06/28 06:37:08;;;;;;;11.23;8.68;;;;;;;34.88;27.48;99847.63;5077796;28;20052;-72
2022/06/28 06:39:34;;;;;;;9.38;8.38;;;;;;;34.95;27.71;99844.66;5046767;28;20098;-72
2022/06/28 06:41:58;;;;;;;15.63;9.55;;;;;;;35.13;27.47;99846.16;5066526;28;20056;-73
2022/06/28 06:44:25;;;;;;;16.55;9.73;;;;;;;35.39;27.28;99842.53;5065625;28;20669;-75
2022/06/28 06:46:50;;;;;;;11.07;9.05;;;;;;;35.49;26.65;99848.13;5063513;28;20086;-72
2022/06/28 06:49:17;;;;;;;9.60;8.40;;;;;;;35.62;26.67;99847.66;5062644;28;20079;-72
2022/06/28 06:51:44;;;;;;;10.63;8.70;;;;;;;36.08;26.37;99852.63;5070199;28;20054;-73
2022/06/28 06:54:10;;;;;;;20.35;9.45;;;;;;;36.29;26.02;99848.84;5055535;28;20059;-72
2022/06/28 06:56:35;;;;;;;9.13;8.23;;;;;;;36.43;25.37;99858.31;5068084;28;20104;-71
2022/06/28 06:59:00;;;;;;;12.90;8.65;;;;;;;36.43;25.29;99858.31;5078566;28;20043;-72
2022/06/28 07:01:28;;;;;;;11.82;7.63;;;;;;;36.95;25.08;99855.34;5104385;27;20448;-74
2022/06/28 07:03:55;;;;;;;9.50;8.50;;;;;;;37.76;24.04;99877.56;5083304;27;20067;-74
2022/06/28 07:06:20;;;;;;;11.95;8.45;;;;;;;38.86;23.68;99862.56;5083747;27;20039;-73
2022/06/28 07:08:45;;;;;;;11.50;9.63;;;;;;;39.68;22.23;99868.28;5083230;27;20042;-72
2022/06/28 07:11:11;;;;;;;10.70;9.52;;;;;;;40.34;21.22;99859.97;5101114;27;20046;-73
2022/06/28 07:13:36;;;;;;;13.70;9.63;;;;;;;40.69;20.65;99854.97;5101135;27;20050;-73
2022/06/28 07:16:02;;;;;;;11.48;10.20;;;;;;;40.59;20.33;99862.41;5101792;27;20412;-73
2022/06/28 07:18:27;;;;;;;14.90;9.32;;;;;;;40.63;20.80;99854.25;5104980;27;20446;-73
2022/06/28 07:20:55;;;;;;;9.48;8.57;;;;;;;40.95;20.56;99865.50;5120022;27;20043;-72
2022/06/28 07:23:21;;;;;;;9.48;8.57;;;;;;;41.23;19.89;99860.84;5110691;27;20019;-72
2022/06/28 07:25:46;;;;;;;14.75;9.38;;;;;;;41.71;19.64;99871.75;5103448;27;20139;-73
2022/06/28 07:28:11;;;;;;;12.60;8.45;;;;;;;41.93;18.80;99863.44;5121772;27;20078;-72
2022/06/28 07:30:36;;;;;;;13.00;9.05;;;;;;;42.40;18.52;99878.19;5100570;27;20103;-71
2022/06/28 07:33:03;;;;;;;13.82;9.80;;;;;;;42.97;18.02;99875.75;5099426;27;20524;-74
2022/06/28 07:35:28;;;;;;;19.40;11.45;;;;;;;43.69;18.16;99881.19;5099210;27;20041;-73
2022/06/28 07:37:53;;;;;;;12.30;9.93;;;;;;;44.13;16.62;99875.47;5109534;27;20043;-72
2022/06/28 07:40:37;;;;;;;11.05;9.95;;;;;;;44.40;16.23;99890.41;5099442;27;20477;-72
2022/06/28 07:43:28;;;;;;;11.40;9.48;;;;;;;44.62;15.62;99893.09;5017812;28;20186;-70
2022/06/28 07:46:02;;;;;;;14.00;9.52;;;;;;;44.32;16.01;99899.63;5001367;28;20047;-71
2022/06/28 07:48:29;;;;;;;10.68;9.52;;;;;;;44.37;15.35;99891.06;5017136;28;20474;-71
2022/06/28 07:53:38;;;;;;;11.63;9.98;;;;;;;44.08;16.22;99886.00;5017824;28;20469;-70
2022/06/28 07:56:12;;;;;;;11.45;9.18;;;;;;;44.67;16.04;99890.13;5016251;28;20070;-70
2022/06/28 07:58:40;;;;;;;10.45;9.45;;;;;;;44.89;15.20;99891.16;5013414;28;20044;-70
2022/06/28 08:01:09;;;;;;;10.55;9.55;;;;;;;44.67;15.43;99898.56;5012901;28;20049;-71
2022/06/28 08:03:34;;;;;;;11.48;9.90;;;;;;;44.38;15.27;99893.53;4996446;28;20063;-71
2022/06/28 08:05:59;;;;;;;10.98;9.23;;;;;;;44.30;15.35;99891.53;4957072;28;20089;-72
2022/06/28 08:08:30;;;;;;;10.00;9.10;;;;;;;44.60;14.91;99895.41;4990189;28;20057;-71
2022/06/28 08:10:54;;;;;;;12.70;9.35;;;;;;;45.07;14.00;99901.22;4989784;28;20053;-71
2022/06/28 08:13:20;;;;;;;10.43;8.55;;;;;;;44.83;14.43;99908.19;4973395;28;20108;-71
2022/06/28 08:15:45;;;;;;;11.05;9.18;;;;;;;44.46;14.77;99906.00;4941083;28;20042;-72
2022/06/28 08:18:10;;;;;;;15.20;9.77;;;;;;;44.58;14.38;99896.91;4990037;28;20393;-71
2022/06/28 08:20:37;;;;;;;11.25;9.57;;;;;;;45.18;14.46;99913.81;4987862;28;20051;-72
2022/06/28 08:23:02;;;;;;;10.55;9.48;;;;;;;46.28;13.90;99906.56;5070812;28;20048;-72
2022/06/28 08:25:27;;;;;;;11.07;9.85;;;;;;;47.39;13.03;99913.38;5036961;28;20048;-71
2022/06/28 08:27:52;;;;;;;12.68;11.02;;;;;;;47.89;12.41;99918.78;5048460;28;20058;-71
2022/06/28 08:30:17;;;;;;;13.77;11.70;;;;;;;47.92;12.29;99920.06;5055661;28;20043;-72
2022/06/28 08:32:42;;;;;;;15.45;12.18;;;;;;;47.69;12.15;99920.50;5055096;28;20055;-70
2022/06/28 08:35:07;;;;;;;15.48;14.18;;;;;;;47.75;12.71;99925.97;5054404;28;20062;-72
2022/06/28 08:37:32;;;;;;;14.40;11.98;;;;;;;47.90;12.25;99928.91;5104348;27;20459;-72
2022/06/28 08:39:57;;;;;;;13.75;12.43;;;;;;;48.37;11.85;99928.47;5116674;27;20477;-71
2022/06/28 08:42:27;;;;;;;13.73;11.43;;;;;;;49.03;11.34;99937.44;5116750;27;20050;-70
2022/06/28 08:44:58;;;;;;;12.18;11.20;;;;;;;49.36;11.02;99934.38;5098185;27;20038;-70
2022/06/28 08:47:24;;;;;;;18.23;14.43;;;;;;;49.61;10.05;99946.44;5116208;27;20030;-71
2022/06/28 08:50:31;;;;;;;14.30;13.40;;;;;;;50.49;10.42;99950.75;5079994;27;20404;-71
2022/06/28 08:52:59;;;;;;;17.58;16.05;;;;;;;50.53;9.89;99942.34;4995868;28;20561;-71
2022/06/28 08:55:25;;;;;;;14.77;13.30;;;;;;;50.94;9.31;99938.03;5011914;28;20476;-72
2022/06/28 08:57:51;;;;;;;16.65;14.82;;;;;;;51.30;9.01;99941.63;4980551;28;20139;-74
2022/06/28 09:00:16;;;;;;;20.58;18.70;;;;;;;51.66;8.47;99932.63;5012941;28;20459;-72
2022/06/28 09:02:41;;;;;;;21.85;20.35;;;;;;;52.03;8.42;99932.06;5013172;28;20485;-72
2022/06/28 09:05:06;;;;;;;24.33;22.27;;;;;;;52.40;8.13;99935.94;5012598;28;20431;-71
2022/06/28 09:07:31;;;;;;;24.52;22.73;;;;;;;52.87;8.06;99931.75;5012276;28;20457;-72
2022/06/28 09:09:56;;;;;;;23.83;22.13;;;;;;;53.13;8.03;99940.25;5012686;28;20179;-73
2022/06/28 09:12:21;;;;;;;25.38;23.35;;;;;;;53.38;7.59;99936.91;5012666;28;20071;-74
2022/06/28 09:14:47;;;;;;;26.58;24.98;;;;;;;53.51;7.46;99944.75;5012442;28;20442;-72
2022/06/28 09:17:26;;;;;;;27.58;25.77;;;;;;;54.08;7.37;99933.94;4995239;28;20052;-73
2022/06/28 09:19:54;;;;;;;32.53;30.20;;;;;;;54.10;6.70;99982.06;5012971;28;20124;-73
2022/06/28 09:22:37;;;;;;;32.47;29.80;;;;;;;54.96;6.79;99990.91;4995089;28;20079;-72
2022/06/28 09:25:05;;;;;;;29.95;28.17;;;;;;;54.60;6.51;99978.44;5004563;28;20091;-73
2022/06/28 09:27:34;;;;;;;34.60;32.38;;;;;;;54.89;6.50;99981.47;5012798;28;20037;-74
2022/06/28 09:30:00;;;;;;;33.72;31.63;;;;;;;55.07;6.57;99988.09;5067692;27;20462;-75
2022/06/28 09:32:34;;;;;;;36.50;34.47;;;;;;;55.52;6.52;100000.16;5080021;27;20429;-74
2022/06/28 09:35:10;;;;;;;36.85;34.65;;;;;;;56.01;6.34;99983.09;5086262;27;20122;-71
2022/06/28 09:37:45;;;;;;;43.05;40.67;;;;;;;55.47;5.97;99992.78;5122960;27;20070;-72
2022/06/28 09:40:14;;;;;;;45.97;43.67;;;;;;;55.20;5.74;99994.31;5118118;27;20527;-72
2022/06/28 09:42:41;;;;;;;38.30;35.92;;;;;;;54.97;6.17;99986.84;5114713;27;20054;-72
2022/06/28 09:45:07;;;;;;;41.03;38.50;;;;;;;54.79;5.93;99985.06;5097838;27;20058;-74
2022/06/28 09:47:31;;;;;;;40.42;37.85;;;;;;;55.04;5.97;99986.03;5100214;27;20039;-73
2022/06/28 09:49:56;;;;;;;42.85;40.15;;;;;;;55.12;6.01;99982.00;5119580;27;20126;-74
2022/06/28 09:52:26;;;;;;;36.60;34.25;;;;;;;54.79;5.76;99976.50;5119223;27;20038;-72
2022/06/28 09:54:54;;;;;;;34.63;32.83;;;;;;;53.93;6.26;99926.50;5119487;27;20134;-73
2022/06/28 09:57:20;;;;;;;34.78;31.90;;;;;;;52.57;6.80;99931.75;5102070;27;20031;-73
2022/06/28 09:59:45;;;;;;;25.75;23.85;;;;;;;51.93;7.08;99919.28;5100405;27;20038;-74
2022/06/28 10:02:15;;;;;;;26.73;25.05;;;;;;;51.66;7.22;99926.94;5083573;27;20066;-75
2022/06/28 10:04:40;;;;;;;24.75;23.15;;;;;;;51.87;7.29;99918.78;5117941;27;20446;-73
2022/06/28 10:07:09;;;;;;;29.83;27.75;;;;;;;52.50;6.56;99935.28;5118216;27;20129;-71
2022/06/28 10:09:34;;;;;;;25.73;24.27;;;;;;;51.94;6.78;99925.81;5082754;27;20046;-72
2022/06/28 10:17:43;;;;;;;22.73;21.23;;;;;;;51.80;6.44;99915.00;5117923;27;20046;-71
2022/06/28 10:20:11;;;;;;;22.75;21.35;;;;;;;52.13;6.30;99915.19;5118388;27;20103;-70
2022/06/28 10:22:36;;;;;;;25.15;23.75;;;;;;;52.87;6.54;99926.03;5099329;27;20122;-72
2022/06/28 10:25:12;;;;;;;27.63;25.60;;;;;;;53.72;6.60;99932.81;5118698;27;20500;-72
2022/06/28 10:27:44;;;;;;;30.67;28.73;;;;;;;54.53;5.69;99932.69;5099363;27;20042;-72
2022/06/28 10:30:14;;;;;;;;;;;;;;;55.89;6.07;99934.03;5118907;27;20049;-72
2022/06/28 10:32:42;;;;;;;31.02;29.35;;;;;;;54.76;5.22;99963.00;5099466;27;19937;-74
2022/06/28 10:35:07;;;;;;;31.92;30.30;;;;;;;53.27;5.84;99916.84;5100176;27;20052;-74
2022/06/28 10:37:32;;;;;;;25.83;24.40;;;;;;;50.28;6.72;99904.84;5099404;27;20043;-72
2022/06/28 10:40:22;;;;;;;17.13;16.00;;;;;;;47.68;8.62;99893.41;5118380;27;20043;-71
2022/06/28 10:42:52;;;;;;;13.52;12.23;;;;;;;43.94;11.09;99882.47;5118643;27;20034;-72
2022/06/28 10:45:20;;;;;;;11.55;9.57;;;;;;;41.52;12.75;99888.59;5099579;27;20038;-72
2022/06/28 10:48:07;;;;;;;16.58;7.43;;;;;;;40.14;13.35;99875.00;5118280;27;20042;-72
2022/06/28 10:50:56;;;;;;;9.00;5.88;;;;;;;38.55;13.90;99875.03;5099527;27;20054;-72
2022/06/28 10:53:21;;;;;;;7.60;5.35;;;;;;;36.64;15.71;99864.75;5116737;27;20052;-71
2022/06/28 10:56:14;;;;;;;8.38;5.55;;;;;;;35.96;16.21;99867.56;5117308;27;20232;-73
2022/06/28 10:58:58;;;;;;;8.02;4.97;;;;;;;34.87;16.45;99872.84;5119007;27;20039;-73
2022/06/28 11:01:44;;;;;;;;;;;;;;;34.46;16.90;99863.25;5100577;27;20096;-74
2022/06/28 11:04:18;;;;;;;6.03;4.10;;;;;;;33.02;19.01;99872.50;5118057;27;20348;-75
2022/06/28 11:06:54;;;;;;;4.47;3.90;;;;;;;32.11;19.04;99851.41;5065017;27;20481;-72
2022/06/28 11:09:45;;;;;;;5.35;3.95;;;;;;;31.89;19.48;99855.91;5082589;27;20038;-73
2022/06/28 11:12:19;;;;;;;4.68;4.18;;;;;;;31.38;20.38;99860.25;5082026;27;20046;-73
2022/06/28 11:15:00;;;;;;;6.45;4.72;;;;;;;30.93;21.23;99862.69;5116609;27;20046;-71
2022/06/28 11:17:30;;;;;;;8.95;4.32;;;;;;;30.68;22.23;99860.97;5117039;27;20042;-71
2022/06/28 11:20:00;;;;;;;6.63;5.00;;;;;;;30.37;21.12;99857.56;5117273;27;20050;-74
2022/06/28 11:22:28;;;;;;;6.35;4.43;;;;;;;30.15;21.64;99860.84;5118174;27;20043;-73
2022/06/28 11:24:56;;;;;;;9.50;3.95;;;;;;;29.90;22.11;99858.19;5082025;27;20046;-73
2022/06/28 11:27:24;;;;;;;4.68;3.55;;;;;;;29.63;22.09;99858.69;5118598;27;20173;-74
2022/06/28 11:29:54;;;;;;;4.93;3.30;;;;;;;29.41;23.13;99867.38;5117307;27;20034;-73
2022/06/28 11:32:29;;;;;;;10.25;3.97;;;;;;;29.23;22.27;99861.81;5117796;27;20133;-73
2022/06/28 11:34:56;;;;;;;6.47;4.13;;;;;;;28.95;22.04;99873.25;5128849;27;20069;-74
2022/06/28 11:37:22;;;;;;;5.40;3.72;;;;;;;28.62;22.04;99850.66;5121975;27;20046;-78
2022/06/28 11:39:49;;;;;;;6.50;3.33;;;;;;;28.26;23.38;99860.38;5100238;27;20037;-81
2022/06/28 11:42:14;;;;;;;5.38;3.70;;;;;;;28.03;23.72;99863.59;5119803;27;20142;-78
2022/06/28 11:44:42;;;;;;;6.88;3.85;;;;;;;27.85;24.03;99868.09;5084289;27;20043;-75
2022/06/28 11:47:09;;;;;;;6.78;3.65;;;;;;;27.71;24.28;99856.34;5099729;27;20049;-72
2022/06/28 11:49:34;;;;;;;8.68;4.40;;;;;;;27.62;24.43;99861.22;5099788;27;20050;-74